Cheney, WA

3:06 PM PDT on August 27, 2014 (GMT -0700)
RAWS CHENEY WA US | Change Station
CLOSE
Current Station
Personal Weather Station
Location: Cheney, WA
Elevation: 2229 ft
Nearby Weather Stations

Elev 2229 ft 47.42 °N, 117.53 °W | Updated 38 minutes ago

Clear
Clear
88 °F
Feels Like 85 °F
N
7
Wind Variable Wind from SW
Gusts 16.0 mph

Today
High -- | Low -- °F
--% Chance of Precip.
Yesterday
High -- | Low -- °F
Precip. -- in
6:02 AM 7:40 PM
Waxing Crescent, 5% visible
Pressure 29.98 in
Visibility 10.0 miles
Clouds Clear
Heat Index 85 °F
Dew Point 43 °F
Humidity 21%
Rainfall 0.00 in
Snow Depth Not available.
UV 6 out of 12
Pollen 7.70 out of 12
PM2.5 Good
Flu Activity Not available.
METAR KSKA 272158Z AUTO 19012G16KT 10SM CLR 31/07 A3002 RMK AO2 RAE2059DZB2059E2105 SLP151 P0000 T03060069

More Conditions Fewer Conditions

Pressure 29.98 in
Visibility 10.0 miles
Clouds Clear
Heat Index 85 °F
Dew Point 43 °F
Humidity 21%
Rainfall 0.00 in
Snow Depth Not available.
UV 6 out of 12
Pollen 7.70 out of 12
PM2.5 Good
Flu Activity Not available.
METAR KSKA 272158Z AUTO 19012G16KT 10SM CLR 31/07 A3002 RMK AO2 RAE2059DZB2059E2105 SLP151 P0000 T03060069

More Conditions Fewer Conditions

10-Day Weather Forecast

Almanac

Astronomy

Aug. 27, 2014 Rise Set
Actual Time 6:02 AM PDT 7:40 PM PDT
Civil Twilight 5:30 AM PDT 8:12 PM PDT
Nautical Twilight 4:51 AM PDT 8:51 PM PDT
Astronomical Twilight 4:08 AM PDT 9:34 PM PDT
Moon 8:14 AM PDT 8:21 PM PDT
Length of Visible Light 14h 41m
Length of Day
13h 37m
Tomorrow will be 3m 14s shorter.
Waxing Crescent, 5% of the Moon is Illuminated
Today
Waxing Crescent
Sep 2
First Quarter
Sep 8
Full
Sep 15
Last Quarter
Sep 24
New

Today's Extremes

State Highs State Lows

Community

WunderPhotos

Upload Photos

1,747,798 photos uploaded!

Nearby

Air Quality

  Air Quality AQ Index Pollutant
Yesterday Good
PM10
Yesterday Good
OZONE
Current Good
PM2.5
Wednesday Good
PM10
Wednesday Good
OZONE
Thursday Good
PM10
Thursday Good
OZONE

Snow Depth

Station Depth Elevation
Quartz Peak 0 in 4700 ft
Spruce Springs 0 in 5700 ft
Moses Mountain 1 in 5300 ft
Sentinel Butte 0 in 4920 ft
Trough 0 in 5300 ft

Earthquake Activity

City Distance Mag. Time & Date
No recent earthquake activity has been reported nearby.
Minimum magnitude displayed is 2.5.

Coastal Water Temperatures

Place Temperature
No Stations Reporting

Nearby Weather Stations